sensor_id;sensor_type;location;lat;lon;timestamp;pressure;altitude;pressure_sealevel;temperature;humidity
73085;BME280;62974;49.460;10.892;2022-12-01T00:01:19;98432.41;;;1.92;95.70
73085;BME280;62974;49.460;10.892;2022-12-01T00:03:47;98435.31;;;2.09;93.69
73085;BME280;62974;49.460;10.892;2022-12-01T00:06:19;98435.41;;;1.77;93.24
73085;BME280;62974;49.460;10.892;2022-12-01T00:08:48;98425.28;;;1.82;94.32
73085;BME280;62974;49.460;10.892;2022-12-01T00:11:46;98427.19;;;1.80;94.61
73085;BME280;62974;49.460;10.892;2022-12-01T00:14:14;98434.50;;;1.47;94.98
73085;BME280;62974;49.460;10.892;2022-12-01T00:16:42;98430.22;;;1.76;94.80
73085;BME280;62974;49.460;10.892;2022-12-01T00:19:10;98422.66;;;2.53;92.67
73085;BME280;62974;49.460;10.892;2022-12-01T00:21:37;98422.03;;;2.89;92.54
73085;BME280;62974;49.460;10.892;2022-12-01T00:24:06;98420.91;;;2.92;91.87
73085;BME280;62974;49.460;10.892;2022-12-01T00:26:36;98423.81;;;2.79;89.64
73085;BME280;62974;49.460;10.892;2022-12-01T00:29:05;98435.41;;;2.28;91.10
73085;BME280;62974;49.460;10.892;2022-12-01T00:31:32;98424.09;;;2.76;93.27
73085;BME280;62974;49.460;10.892;2022-12-01T00:34:00;98417.28;;;2.03;91.84
73085;BME280;62974;49.460;10.892;2022-12-01T00:36:36;98423.59;;;1.81;93.42
73085;BME280;62974;49.460;10.892;2022-12-01T00:39:03;98432.75;;;2.28;95.27
73085;BME280;62974;49.460;10.892;2022-12-01T00:41:31;98424.56;;;2.91;92.70
73085;BME280;62974;49.460;10.892;2022-12-01T00:43:58;98424.44;;;3.02;92.86
73085;BME280;62974;49.460;10.892;2022-12-01T00:46:27;98427.38;;;3.08;92.08
73085;BME280;62974;49.460;10.892;2022-12-01T00:48:55;98425.53;;;2.90;92.68
73085;BME280;62974;49.460;10.892;2022-12-01T00:51:22;98431.00;;;3.07;92.57
73085;BME280;62974;49.460;10.892;2022-12-01T00:53:50;98433.13;;;3.13;91.14
73085;BME280;62974;49.460;10.892;2022-12-01T00:56:17;98440.91;;;2.86;91.23
73085;BME280;62974;49.460;10.892;2022-12-01T00:58:46;98440.75;;;3.07;91.78
73085;BME280;62974;49.460;10.892;2022-12-01T01:01:13;98438.69;;;3.10;91.63
73085;BME280;62974;49.460;10.892;2022-12-01T01:03:42;98433.53;;;2.50;90.99
73085;BME280;62974;49.460;10.892;2022-12-01T01:06:11;98443.81;;;1.82;92.98
73085;BME280;62974;49.460;10.892;2022-12-01T01:08:38;98439.28;;;2.64;94.21
73085;BME280;62974;49.460;10.892;2022-12-01T01:11:07;98442.31;;;2.50;92.55
73085;BME280;62974;49.460;10.892;2022-12-01T01:13:35;98448.81;;;1.44;95.50
73085;BME280;62974;49.460;10.892;2022-12-01T01:16:05;98442.22;;;2.01;95.77
73085;BME280;62974;49.460;10.892;2022-12-01T01:18:33;98436.19;;;1.89;94.98
73085;BME280;62974;49.460;10.892;2022-12-01T01:21:04;98441.59;;;2.39;95.27
73085;BME280;62974;49.460;10.892;2022-12-01T01:23:32;98436.34;;;2.58;93.73
73085;BME280;62974;49.460;10.892;2022-12-01T01:26:01;98432.97;;;2.46;91.64
73085;BME280;62974;49.460;10.892;2022-12-01T01:28:29;98447.31;;;1.83;94.01
73085;BME280;62974;49.460;10.892;2022-12-01T01:30:56;98445.09;;;1.67;95.31
73085;BME280;62974;49.460;10.892;2022-12-01T01:33:24;98446.28;;;2.65;94.86
73085;BME280;62974;49.460;10.892;2022-12-01T01:35:52;98452.13;;;1.99;95.04
73085;BME280;62974;49.460;10.892;2022-12-01T01:38:20;98448.28;;;2.82;93.73
73085;BME280;62974;49.460;10.892;2022-12-01T01:40:48;98444.94;;;2.90;92.59
73085;BME280;62974;49.460;10.892;2022-12-01T01:43:17;98447.06;;;3.06;92.71
73085;BME280;62974;49.460;10.892;2022-12-01T01:46:03;98443.91;;;2.32;91.23
73085;BME280;62974;49.460;10.892;2022-12-01T01:48:31;98442.91;;;2.63;93.01
73085;BME280;62974;49.460;10.892;2022-12-01T01:50:59;98434.66;;;2.57;93.72
73085;BME280;62974;49.460;10.892;2022-12-01T01:53:29;98454.69;;;1.48;96.22
73085;BME280;62974;49.460;10.892;2022-12-01T01:55:57;98455.31;;;1.40;98.70
73085;BME280;62974;49.460;10.892;2022-12-01T01:58:26;98452.31;;;1.86;98.19
73085;BME280;62974;49.460;10.892;2022-12-01T02:00:54;98450.00;;;1.51;97.08
73085;BME280;62974;49.460;10.892;2022-12-01T02:03:21;98447.41;;;1.81;97.94
73085;BME280;62974;49.460;10.892;2022-12-01T02:05:50;98447.88;;;1.86;97.61
73085;BME280;62974;49.460;10.892;2022-12-01T02:08:17;98450.56;;;1.75;96.36
73085;BME280;62974;49.460;10.892;2022-12-01T02:11:10;98445.72;;;2.01;96.35
73085;BME280;62974;49.460;10.892;2022-12-01T02:13:49;98444.75;;;2.02;95.63
73085;BME280;62974;49.460;10.892;2022-12-01T02:16:25;98442.34;;;1.99;96.48
73085;BME280;62974;49.460;10.892;2022-12-01T02:18:59;98439.97;;;1.75;96.64
73085;BME280;62974;49.460;10.892;2022-12-01T02:21:46;98447.81;;;2.28;95.95
73085;BME280;62974;49.460;10.892;2022-12-01T02:24:45;98438.78;;;2.80;93.55
73085;BME280;62974;49.460;10.892;2022-12-01T02:27:24;98433.97;;;2.15;95.14
73085;BME280;62974;49.460;10.892;2022-12-01T02:30:03;98438.13;;;2.17;94.88
73085;BME280;62974;49.460;10.892;2022-12-01T02:32:38;98442.56;;;1.45;96.83
73085;BME280;62974;49.460;10.892;2022-12-01T02:35:13;98426.25;;;2.12;96.54
73085;BME280;62974;49.460;10.892;2022-12-01T02:37:48;98436.44;;;1.86;98.04
73085;BME280;62974;49.460;10.892;2022-12-01T02:40:23;98434.94;;;2.23;96.22
73085;BME280;62974;49.460;10.892;2022-12-01T02:42:58;98428.03;;;1.81;96.40
73085;BME280;62974;49.460;10.892;2022-12-01T02:45:34;98437.00;;;2.10;97.15
73085;BME280;62974;49.460;10.892;2022-12-01T02:48:08;98437.34;;;1.75;96.86
73085;BME280;62974;49.460;10.892;2022-12-01T02:50:37;98435.41;;;1.98;98.00
73085;BME280;62974;49.460;10.892;2022-12-01T02:53:07;98425.41;;;2.11;95.57
73085;BME280;62974;49.460;10.892;2022-12-01T02:55:45;98436.63;;;1.73;96.36
73085;BME280;62974;49.460;10.892;2022-12-01T02:58:13;98427.19;;;2.01;96.52
73085;BME280;62974;49.460;10.892;2022-12-01T03:00:47;98429.44;;;2.06;96.27
73085;BME280;62974;49.460;10.892;2022-12-01T03:03:31;98417.41;;;2.32;95.49
73085;BME280;62974;49.460;10.892;2022-12-01T03:06:10;98430.22;;;1.76;96.96
73085;BME280;62974;49.460;10.892;2022-12-01T03:08:49;98427.56;;;2.27;96.56
73085;BME280;62974;49.460;10.892;2022-12-01T03:11:24;98432.06;;;1.55;98.09
73085;BME280;62974;49.460;10.892;2022-12-01T03:14:07;98428.44;;;1.56;99.40
73085;BME280;62974;49.460;10.892;2022-12-01T03:16:45;98410.47;;;2.41;96.63
73085;BME280;62974;49.460;10.892;2022-12-01T03:19:19;98411.16;;;2.33;95.34
73085;BME280;62974;49.460;10.892;2022-12-01T03:21:54;98415.47;;;1.73;97.59
73085;BME280;62974;49.460;10.892;2022-12-01T03:24:25;98417.53;;;1.49;100.00
73085;BME280;62974;49.460;10.892;2022-12-01T03:26:56;98415.59;;;1.72;99.19
73085;BME280;62974;49.460;10.892;2022-12-01T03:29:26;98411.16;;;1.20;100.00
73085;BME280;62974;49.460;10.892;2022-12-01T03:31:59;98410.34;;;1.81;100.00
73085;BME280;62974;49.460;10.892;2022-12-01T03:34:35;98419.72;;;1.85;98.05
73085;BME280;62974;49.460;10.892;2022-12-01T03:37:06;98414.34;;;1.76;98.46
73085;BME280;62974;49.460;10.892;2022-12-01T03:39:37;98412.94;;;1.30;100.00
73085;BME280;62974;49.460;10.892;2022-12-01T03:42:10;98420.03;;;1.30;100.00
73085;BME280;62974;49.460;10.892;2022-12-01T03:44:43;98418.28;;;1.81;100.00
73085;BME280;62974;49.460;10.892;2022-12-01T03:47:15;98414.69;;;1.41;100.00
73085;BME280;62974;49.460;10.892;2022-12-01T03:49:45;98414.88;;;1.70;100.00
73085;BME280;62974;49.460;10.892;2022-12-01T03:52:20;98412.56;;;1.56;100.00
73085;BME280;62974;49.460;10.892;2022-12-01T03:55:01;98414.28;;;1.25;100.00
73085;BME280;62974;49.460;10.892;2022-12-01T03:57:39;98415.38;;;1.64;100.00
73085;BME280;62974;49.460;10.892;2022-12-01T04:00:08;98416.56;;;1.50;100.00
73085;BME280;62974;49.460;10.892;2022-12-01T04:02:36;98418.63;;;1.67;100.00
73085;BME280;62974;49.460;10.892;2022-12-01T04:05:06;98416.63;;;1.39;100.00
73085;BME280;62974;49.460;10.892;2022-12-01T04:07:35;98419.00;;;1.42;100.00
73085;BME280;62974;49.460;10.892;2022-12-01T04:10:03;98416.03;;;1.98;99.35
73085;BME280;62974;49.460;10.892;2022-12-01T04:12:31;98417.72;;;1.99;97.56
73085;BME280;62974;49.460;10.892;2022-12-01T04:14:59;98420.59;;;1.96;99.34
73085;BME280;62974;49.460;10.892;2022-12-01T04:17:28;98418.63;;;1.47;100.00
73085;BME280;62974;49.460;10.892;2022-12-01T04:19:56;98411.69;;;1.76;100.00
73085;BME280;62974;49.460;10.892;2022-12-01T04:22:25;98417.59;;;1.59;100.00
73085;BME280;62974;49.460;10.892;2022-12-01T04:24:53;98409.59;;;1.70;100.00
73085;BME280;62974;49.460;10.892;2022-12-01T04:27:20;98410.50;;;1.59;100.00
73085;BME280;62974;49.460;10.892;2022-12-01T04:29:47;98417.34;;;1.62;100.00
73085;BME280;62974;49.460;10.892;2022-12-01T04:32:16;98421.66;;;1.42;100.00
73085;BME280;62974;49.460;10.892;2022-12-01T04:34:43;98413.97;;;1.60;100.00
73085;BME280;62974;49.460;10.892;2022-12-01T04:37:11;98412.22;;;1.49;100.00
73085;BME280;62974;49.460;10.892;2022-12-01T04:39:39;98412.75;;;1.43;100.00
73085;BME280;62974;49.460;10.892;2022-12-01T04:42:08;98411.34;;;1.39;100.00
73085;BME280;62974;49.460;10.892;2022-12-01T04:44:36;98405.63;;;2.15;100.00
73085;BME280;62974;49.460;10.892;2022-12-01T04:47:04;98411.47;;;1.58;100.00
73085;BME280;62974;49.460;10.892;2022-12-01T04:49:32;98399.31;;;1.76;100.00
73085;BME280;62974;49.460;10.892;2022-12-01T04:52:00;98419.13;;;1.40;100.00
73085;BME280;62974;49.460;10.892;2022-12-01T04:54:27;98402.88;;;2.17;100.00
73085;BME280;62974;49.460;10.892;2022-12-01T04:56:56;98406.28;;;1.77;100.00
73085;BME280;62974;49.460;10.892;2022-12-01T04:59:24;98418.19;;;1.83;100.00
73085;BME280;62974;49.460;10.892;2022-12-01T05:01:51;98420.00;;;1.62;100.00
73085;BME280;62974;49.460;10.892;2022-12-01T05:04:19;98424.84;;;2.08;99.08
73085;BME280;62974;49.460;10.892;2022-12-01T05:06:46;98426.31;;;1.50;100.00
73085;BME280;62974;49.460;10.892;2022-12-01T05:09:14;98424.69;;;1.79;100.00
73085;BME280;62974;49.460;10.892;2022-12-01T05:11:43;98419.91;;;1.94;100.00
73085;BME280;62974;49.460;10.892;2022-12-01T05:14:12;98417.25;;;1.73;99.61
73085;BME280;62974;49.460;10.892;2022-12-01T05:16:40;98424.63;;;1.90;100.00
73085;BME280;62974;49.460;10.892;2022-12-01T05:19:07;98423.13;;;1.97;100.00
73085;BME280;62974;49.460;10.892;2022-12-01T05:21:52;98425.78;;;1.76;100.00
73085;BME280;62974;49.460;10.892;2022-12-01T05:24:20;98422.47;;;2.05;100.00
73085;BME280;62974;49.460;10.892;2022-12-01T05:26:47;98410.56;;;1.99;99.07
73085;BME280;62974;49.460;10.892;2022-12-01T05:29:16;98416.03;;;1.77;100.00
73085;BME280;62974;49.460;10.892;2022-12-01T05:31:44;98417.03;;;1.55;100.00
73085;BME280;62974;49.460;10.892;2022-12-01T05:34:12;98421.41;;;1.66;100.00
73085;BME280;62974;49.460;10.892;2022-12-01T05:36:40;98421.78;;;1.40;100.00
73085;BME280;62974;49.460;10.892;2022-12-01T05:39:07;98420.06;;;1.51;100.00
73085;BME280;62974;49.460;10.892;2022-12-01T05:41:35;98416.53;;;1.92;100.00
73085;BME280;62974;49.460;10.892;2022-12-01T05:44:02;98417.56;;;2.00;100.00
73085;BME280;62974;49.460;10.892;2022-12-01T05:46:31;98416.81;;;1.68;100.00
73085;BME280;62974;49.460;10.892;2022-12-01T05:48:58;98412.44;;;2.08;100.00
73085;BME280;62974;49.460;10.892;2022-12-01T05:51:26;98400.22;;;2.17;100.00
73085;BME280;62974;49.460;10.892;2022-12-01T05:53:53;98392.63;;;2.03;100.00
73085;BME280;62974;49.460;10.892;2022-12-01T05:56:21;98390.72;;;1.84;100.00
73085;BME280;62974;49.460;10.892;2022-12-01T05:58:48;98399.00;;;1.49;100.00
73085;BME280;62974;49.460;10.892;2022-12-01T06:01:16;98407.03;;;1.59;100.00
73085;BME280;62974;49.460;10.892;2022-12-01T06:03:45;98417.44;;;2.02;100.00
73085;BME280;62974;49.460;10.892;2022-12-01T06:06:12;98409.34;;;2.43;99.89
73085;BME280;62974;49.460;10.892;2022-12-01T06:08:40;98408.69;;;2.11;99.62
73085;BME280;62974;49.460;10.892;2022-12-01T06:11:08;98416.28;;;1.95;100.00
73085;BME280;62974;49.460;10.892;2022-12-01T06:13:35;98404.97;;;1.93;100.00
73085;BME280;62974;49.460;10.892;2022-12-01T06:16:04;98405.19;;;1.80;100.00
73085;BME280;62974;49.460;10.892;2022-12-01T06:18:34;98408.09;;;1.56;100.00
73085;BME280;62974;49.460;10.892;2022-12-01T06:21:04;98405.84;;;1.52;100.00
73085;BME280;62974;49.460;10.892;2022-12-01T06:23:33;98405.16;;;1.70;100.00
73085;BME280;62974;49.460;10.892;2022-12-01T06:26:00;98411.47;;;1.58;100.00
73085;BME280;62974;49.460;10.892;2022-12-01T06:28:28;98414.81;;;1.81;100.00
73085;BME280;62974;49.460;10.892;2022-12-01T06:30:55;98413.66;;;1.53;100.00
73085;BME280;62974;49.460;10.892;2022-12-01T06:33:28;98421.91;;;1.80;100.00
73085;BME280;62974;49.460;10.892;2022-12-01T06:35:57;98417.25;;;1.52;100.00
73085;BME280;62974;49.460;10.892;2022-12-01T06:38:29;98432.19;;;1.74;100.00
73085;BME280;62974;49.460;10.892;2022-12-01T06:40:57;98429.94;;;1.69;100.00
73085;BME280;62974;49.460;10.892;2022-12-01T06:43:24;98423.31;;;2.05;100.00
73085;BME280;62974;49.460;10.892;2022-12-01T06:45:51;98424.03;;;1.86;100.00
73085;BME280;62974;49.460;10.892;2022-12-01T06:48:26;98431.94;;;2.07;100.00
73085;BME280;62974;49.460;10.892;2022-12-01T06:50:55;98433.88;;;1.75;100.00
73085;BME280;62974;49.460;10.892;2022-12-01T06:53:23;98439.28;;;1.53;100.00
73085;BME280;62974;49.460;10.892;2022-12-01T06:55:53;98427.94;;;1.62;100.00
73085;BME280;62974;49.460;10.892;2022-12-01T06:58:21;98433.03;;;1.54;100.00
73085;BME280;62974;49.460;10.892;2022-12-01T07:00:49;98437.78;;;2.01;100.00
73085;BME280;62974;49.460;10.892;2022-12-01T07:03:17;98436.84;;;1.81;100.00
73085;BME280;62974;49.460;10.892;2022-12-01T07:05:53;98437.34;;;1.75;100.00
73085;BME280;62974;49.460;10.892;2022-12-01T07:08:21;98438.88;;;1.99;100.00
73085;BME280;62974;49.460;10.892;2022-12-01T07:10:56;98443.34;;;1.77;100.00
73085;BME280;62974;49.460;10.892;2022-12-01T07:13:24;98430.88;;;1.89;100.00
73085;BME280;62974;49.460;10.892;2022-12-01T07:15:58;98440.31;;;1.82;100.00
73085;BME280;62974;49.460;10.892;2022-12-01T07:18:26;98438.63;;;1.81;100.00
73085;BME280;62974;49.460;10.892;2022-12-01T07:20:57;98437.66;;;1.61;100.00
73085;BME280;62974;49.460;10.892;2022-12-01T07:23:25;98444.31;;;1.76;100.00
73085;BME280;62974;49.460;10.892;2022-12-01T07:25:58;98437.25;;;2.07;100.00
73085;BME280;62974;49.460;10.892;2022-12-01T07:28:26;98440.63;;;1.88;100.00
73085;BME280;62974;49.460;10.892;2022-12-01T07:31:00;98446.19;;;2.06;100.00
73085;BME280;62974;49.460;10.892;2022-12-01T07:33:28;98446.41;;;2.03;100.00
73085;BME280;62974;49.460;10.892;2022-12-01T07:35:55;98448.84;;;1.65;100.00
73085;BME280;62974;49.460;10.892;2022-12-01T07:38:23;98446.13;;;1.55;100.00
73085;BME280;62974;49.460;10.892;2022-12-01T07:40:50;98446.31;;;1.63;100.00
73085;BME280;62974;49.460;10.892;2022-12-01T07:43:19;98452.41;;;1.54;100.00
73085;BME280;62974;49.460;10.892;2022-12-01T07:45:47;98451.03;;;1.60;100.00
73085;BME280;62974;49.460;10.892;2022-12-01T07:48:14;98450.19;;;1.80;100.00
73085;BME280;62974;49.460;10.892;2022-12-01T07:50:42;98452.00;;;1.79;100.00
73085;BME280;62974;49.460;10.892;2022-12-01T07:53:09;98449.56;;;1.67;100.00
73085;BME280;62974;49.460;10.892;2022-12-01T07:55:37;98452.84;;;1.59;100.00
73085;BME280;62974;49.460;10.892;2022-12-01T07:58:04;98447.16;;;1.84;100.00
73085;BME280;62974;49.460;10.892;2022-12-01T08:00:33;98448.84;;;1.65;100.00
73085;BME280;62974;49.460;10.892;2022-12-01T08:03:01;98445.34;;;1.64;100.00
73085;BME280;62974;49.460;10.892;2022-12-01T08:05:28;98446.97;;;1.76;100.00
73085;BME280;62974;49.460;10.892;2022-12-01T08:07:56;98451.59;;;2.05;100.00
73085;BME280;62974;49.460;10.892;2022-12-01T08:10:23;98447.50;;;1.70;100.00
73085;BME280;62974;49.460;10.892;2022-12-01T08:12:51;98447.50;;;1.70;100.00
73085;BME280;62974;49.460;10.892;2022-12-01T08:15:18;98454.13;;;1.65;100.00
73085;BME280;62974;49.460;10.892;2022-12-01T08:17:47;98447.34;;;1.93;100.00
73085;BME280;62974;49.460;10.892;2022-12-01T08:20:15;98444.56;;;1.94;100.00
73085;BME280;62974;49.460;10.892;2022-12-01T08:22:49;98449.03;;;1.73;100.00
73085;BME280;62974;49.460;10.892;2022-12-01T08:25:16;98444.88;;;2.01;100.00
73085;BME280;62974;49.460;10.892;2022-12-01T08:27:44;98446.94;;;2.18;100.00
73085;BME280;62974;49.460;10.892;2022-12-01T08:30:12;98438.31;;;2.25;99.88
73085;BME280;62974;49.460;10.892;2022-12-01T08:32:40;98446.34;;;2.14;100.00
73085;BME280;62974;49.460;10.892;2022-12-01T08:35:09;98443.66;;;1.84;100.00
73085;BME280;62974;49.460;10.892;2022-12-01T08:37:36;98448.84;;;1.85;100.00
73085;BME280;62974;49.460;10.892;2022-12-01T08:40:05;98445.06;;;2.09;100.00
73085;BME280;62974;49.460;10.892;2022-12-01T08:42:33;98449.34;;;2.00;100.00
73085;BME280;62974;49.460;10.892;2022-12-01T08:45:00;98460.59;;;1.93;100.00
73085;BME280;62974;49.460;10.892;2022-12-01T08:47:28;98451.59;;;2.05;100.00
73085;BME280;62974;49.460;10.892;2022-12-01T08:49:55;98448.19;;;2.23;100.00
73085;BME280;62974;49.460;10.892;2022-12-01T08:52:24;98456.66;;;2.38;100.00
73085;BME280;62974;49.460;10.892;2022-12-01T08:54:51;98442.72;;;2.46;99.77
73085;BME280;62974;49.460;10.892;2022-12-01T08:57:19;98452.03;;;2.10;100.00
73085;BME280;62974;49.460;10.892;2022-12-01T08:59:46;98455.66;;;2.09;100.00
73085;BME280;62974;49.460;10.892;2022-12-01T09:02:15;98451.75;;;2.33;99.75
73085;BME280;62974;49.460;10.892;2022-12-01T09:04:43;98462.00;;;2.27;99.30
73085;BME280;62974;49.460;10.892;2022-12-01T09:07:10;98457.56;;;2.27;99.88
73085;BME280;62974;49.460;10.892;2022-12-01T09:09:42;98459.53;;;2.35;99.85
73085;BME280;62974;49.460;10.892;2022-12-01T09:12:11;98466.69;;;2.44;99.58
73085;BME280;62974;49.460;10.892;2022-12-01T09:14:39;98469.50;;;2.43;99.58
73085;BME280;62974;49.460;10.892;2022-12-01T09:17:08;98467.19;;;2.28;99.75
73085;BME280;62974;49.460;10.892;2022-12-01T09:19:35;98473.72;;;2.24;100.00
73085;BME280;62974;49.460;10.892;2022-12-01T09:22:03;98472.19;;;2.22;100.00
73085;BME280;62974;49.460;10.892;2022-12-01T09:24:30;98467.19;;;2.28;99.75
73085;BME280;62974;49.460;10.892;2022-12-01T09:26:59;98472.69;;;2.16;98.75
73085;BME280;62974;49.460;10.892;2022-12-01T09:29:28;98457.84;;;2.55;98.92
73085;BME280;62974;49.460;10.892;2022-12-01T09:31:57;98460.56;;;2.44;97.65
73085;BME280;62974;49.460;10.892;2022-12-01T09:34:25;98451.59;;;2.75;98.54
73085;BME280;62974;49.460;10.892;2022-12-01T09:36:54;98463.75;;;2.77;97.53
73085;BME280;62974;49.460;10.892;2022-12-01T09:39:22;98457.59;;;2.77;97.65
73085;BME280;62974;49.460;10.892;2022-12-01T09:41:51;98457.56;;;2.67;97.20
73085;BME280;62974;49.460;10.892;2022-12-01T09:44:29;98456.66;;;2.78;97.75
73085;BME280;62974;49.460;10.892;2022-12-01T09:47:04;98455.41;;;2.82;98.17
73085;BME280;62974;49.460;10.892;2022-12-01T09:49:40;98456.78;;;2.76;97.84
73085;BME280;62974;49.460;10.892;2022-12-01T09:52:12;98454.84;;;2.88;97.97
73085;BME280;62974;49.460;10.892;2022-12-01T09:54:40;98451.13;;;2.60;97.42
73085;BME280;62974;49.460;10.892;2022-12-01T09:57:14;98451.53;;;2.46;97.94
73085;BME280;62974;49.460;10.892;2022-12-01T09:59:44;98449.00;;;2.45;98.24
73085;BME280;62974;49.460;10.892;2022-12-01T10:02:23;98440.63;;;2.49;97.91
73085;BME280;62974;49.460;10.892;2022-12-01T10:04:54;98439.97;;;2.57;98.58
73085;BME280;62974;49.460;10.892;2022-12-01T10:07:24;98437.53;;;2.44;98.15
73085;BME280;62974;49.460;10.892;2022-12-01T10:09:56;98440.25;;;2.63;98.22
73085;BME280;62974;49.460;10.892;2022-12-01T10:12:26;98436.63;;;2.64;97.95
73085;BME280;62974;49.460;10.892;2022-12-01T10:15:04;98431.94;;;2.87;96.82
73085;BME280;62974;49.460;10.892;2022-12-01T10:17:42;98425.78;;;2.77;97.33
73085;BME280;62974;49.460;10.892;2022-12-01T10:20:16;98419.38;;;2.70;96.61
73085;BME280;62974;49.460;10.892;2022-12-01T10:23:03;98422.28;;;2.76;97.05
73085;BME280;62974;49.460;10.892;2022-12-01T10:25:44;98416.88;;;2.88;97.59
73085;BME280;62974;49.460;10.892;2022-12-01T10:28:28;98412.25;;;2.80;96.52
73085;BME280;62974;49.460;10.892;2022-12-01T10:31:06;98407.38;;;2.85;96.88
73085;BME280;62974;49.460;10.892;2022-12-01T10:33:44;98403.88;;;2.84;96.40
73085;BME280;62974;49.460;10.892;2022-12-01T10:36:13;98407.28;;;3.06;97.08
73085;BME280;62974;49.460;10.892;2022-12-01T10:38:41;98397.50;;;3.16;96.03
73085;BME280;62974;49.460;10.892;2022-12-01T10:41:11;98402.50;;;3.19;94.82
73085;BME280;62974;49.460;10.892;2022-12-01T10:43:43;98396.25;;;3.29;94.73
73085;BME280;62974;49.460;10.892;2022-12-01T10:46:21;98396.50;;;3.36;94.35
73085;BME280;62974;49.460;10.892;2022-12-01T10:48:52;98403.63;;;3.36;94.59
73085;BME280;62974;49.460;10.892;2022-12-01T10:51:21;98392.19;;;3.35;93.56
73085;BME280;62974;49.460;10.892;2022-12-01T10:53:49;98390.50;;;3.44;93.62
73085;BME280;62974;49.460;10.892;2022-12-01T10:56:18;98395.38;;;3.39;91.98
73085;BME280;62974;49.460;10.892;2022-12-01T10:58:50;98396.50;;;3.36;93.49
73085;BME280;62974;49.460;10.892;2022-12-01T11:01:21;98396.34;;;3.47;92.53
73085;BME280;62974;49.460;10.892;2022-12-01T11:03:51;98388.53;;;3.65;92.66
73085;BME280;62974;49.460;10.892;2022-12-01T11:06:23;98385.03;;;3.64;92.75
73085;BME280;62974;49.460;10.892;2022-12-01T11:08:52;98393.56;;;3.39;92.22
73085;BME280;62974;49.460;10.892;2022-12-01T11:11:24;98386.44;;;3.49;92.41
73085;BME280;62974;49.460;10.892;2022-12-01T11:13:53;98385.75;;;3.57;92.29
73085;BME280;62974;49.460;10.892;2022-12-01T11:16:41;98391.19;;;3.65;92.81
73085;BME280;62974;49.460;10.892;2022-12-01T11:19:18;98395.91;;;3.71;92.38
73085;BME280;62974;49.460;10.892;2022-12-01T11:21:54;98379.25;;;3.78;91.73
73085;BME280;62974;49.460;10.892;2022-12-01T11:24:38;98381.22;;;3.76;90.93
73085;BME280;62974;49.460;10.892;2022-12-01T11:27:13;98376.16;;;3.83;91.53
73085;BME280;62974;49.460;10.892;2022-12-01T11:29:42;98375.59;;;3.89;90.56
73085;BME280;62974;49.460;10.892;2022-12-01T11:32:17;98375.19;;;3.94;90.53
73085;BME280;62974;49.460;10.892;2022-12-01T11:34:51;98374.72;;;3.98;90.75
73085;BME280;62974;49.460;10.892;2022-12-01T11:37:23;98369.34;;;3.81;89.95
73085;BME280;62974;49.460;10.892;2022-12-01T11:39:52;98366.53;;;3.82;90.64
73085;BME280;62974;49.460;10.892;2022-12-01T11:42:23;98371.84;;;3.82;91.18
73085;BME280;62974;49.460;10.892;2022-12-01T11:44:54;98358.28;;;3.85;89.74
73085;BME280;62974;49.460;10.892;2022-12-01T11:47:24;98363.00;;;3.91;90.14
73085;BME280;62974;49.460;10.892;2022-12-01T11:49:55;98364.78;;;4.00;90.33
73085;BME280;62974;49.460;10.892;2022-12-01T11:52:26;98364.50;;;4.03;90.44
73085;BME280;62974;49.460;10.892;2022-12-01T11:54:58;98358.22;;;4.04;90.17
73085;BME280;62974;49.460;10.892;2022-12-01T11:57:31;98356.69;;;4.02;89.39
73085;BME280;62974;49.460;10.892;2022-12-01T12:00:20;98355.97;;;4.00;89.53
73085;BME280;62974;49.460;10.892;2022-12-01T12:03:01;98343.44;;;3.92;89.24
73085;BME280;62974;49.460;10.892;2022-12-01T12:05:41;98344.63;;;4.07;90.04
73085;BME280;62974;49.460;10.892;2022-12-01T12:08:21;98351.97;;;4.23;90.48
73085;BME280;62974;49.460;10.892;2022-12-01T12:10:59;98346.34;;;4.26;88.42
73085;BME280;62974;49.460;10.892;2022-12-01T12:16:42;98350.78;;;4.35;88.75
73085;BME280;62974;49.460;10.892;2022-12-01T12:19:38;98340.22;;;4.70;87.59
73085;BME280;62974;49.460;10.892;2022-12-01T12:22:38;98331.91;;;4.56;87.46
73085;BME280;62974;49.460;10.892;2022-12-01T12:25:21;98338.66;;;4.50;89.09
73085;BME280;62974;49.460;10.892;2022-12-01T12:27:58;98337.09;;;4.57;87.77
73085;BME280;62974;49.460;10.892;2022-12-01T12:30:38;98329.13;;;4.57;86.72
73085;BME280;62974;49.460;10.892;2022-12-01T12:33:20;98333.72;;;4.38;89.34
73085;BME280;62974;49.460;10.892;2022-12-01T12:36:01;98332.06;;;4.54;89.10
73085;BME280;62974;49.460;10.892;2022-12-01T12:38:47;98331.72;;;4.40;89.26
73085;BME280;62974;49.460;10.892;2022-12-01T12:41:24;98330.75;;;4.41;87.97
73085;BME280;62974;49.460;10.892;2022-12-01T12:44:16;98325.28;;;4.42;88.25
73085;BME280;62974;49.460;10.892;2022-12-01T12:46:53;98325.31;;;4.60;89.28
73085;BME280;62974;49.460;10.892;2022-12-01T12:49:33;98320.84;;;4.60;88.61
73085;BME280;62974;49.460;10.892;2022-12-01T12:52:07;98321.72;;;4.51;89.20
73085;BME280;62974;49.460;10.892;2022-12-01T12:54:43;98317.91;;;4.54;88.33
73085;BME280;62974;49.460;10.892;2022-12-01T12:57:20;98321.41;;;4.54;89.66
73085;BME280;62974;49.460;10.892;2022-12-01T12:59:53;98313.38;;;4.64;88.36
73085;BME280;62974;49.460;10.892;2022-12-01T13:02:28;98315.44;;;4.52;89.50
73085;BME280;62974;49.460;10.892;2022-12-01T13:05:03;98319.06;;;4.51;89.85
73085;BME280;62974;49.460;10.892;2022-12-01T13:07:37;98316.81;;;4.56;88.94
73085;BME280;62974;49.460;10.892;2022-12-01T13:10:13;98316.41;;;4.51;88.13
73085;BME280;62974;49.460;10.892;2022-12-01T13:12:48;98318.56;;;4.65;89.66
73085;BME280;62974;49.460;10.892;2022-12-01T13:15:19;98315.81;;;4.75;88.90
73085;BME280;62974;49.460;10.892;2022-12-01T13:17:50;98312.31;;;4.74;89.02
73085;BME280;62974;49.460;10.892;2022-12-01T13:20:21;98308.06;;;4.64;89.08